Time;durP1;ratioP1;P1;durP2;ratioP2;P2;SDS_P1;SDS_P2;PMS_P1;PMS_P2;Temp;Humidity;BMP_temperature;BMP_pressure;BME280_temperature;BME280_humidity;BME280_pressure;Samples;Min_cycle;Max_cycle;Signal;HPM_P1;HPM_P2
2021/07/09 00:02:32;;;;;;;3.60;1.95;;;20.50;64.40;;;;;;6269347;28;20033;-75
2021/07/09 00:05:33;;;;;;;10.98;2.88;;;20.50;64.40;;;;;;6300744;28;20105;-75
2021/07/09 00:08:34;;;;;;;2.05;1.52;;;20.50;64.50;;;;;;6291300;28;20044;-75
2021/07/09 00:11:39;;;;;;;4.25;1.40;;;20.50;64.50;;;;;;6298603;28;20032;-75
2021/07/09 00:14:40;;;;;;;5.50;1.35;;;20.50;64.50;;;;;;6298409;28;20040;-75
2021/07/09 00:17:41;;;;;;;1.95;1.30;;;20.50;64.70;;;;;;6315459;28;20392;-75
2021/07/09 00:20:43;;;;;;;6.25;1.35;;;20.50;64.60;;;;;;6298953;28;20055;-75
2021/07/09 00:23:45;;;;;;;1.48;1.20;;;20.50;64.70;;;;;;6314994;28;20094;-75
2021/07/09 00:26:46;;;;;;;4.97;1.42;;;20.40;64.70;;;;;;6315154;28;20114;-75
2021/07/09 00:29:48;;;;;;;9.77;1.65;;;20.40;64.70;;;;;;6299056;28;20086;-75
2021/07/09 00:32:49;;;;;;;2.72;1.40;;;20.40;64.60;;;;;;6298412;28;20051;-75
2021/07/09 00:35:50;;;;;;;6.43;1.55;;;20.30;64.50;;;;;;6299052;28;20021;-75
2021/07/09 00:38:52;;;;;;;3.15;1.65;;;20.30;64.70;;;;;;6299144;28;20454;-75
2021/07/09 00:41:53;;;;;;;7.32;2.40;;;20.30;64.60;;;;;;6299578;28;20036;-76
2021/07/09 00:44:54;;;;;;;2.22;1.58;;;20.20;64.70;;;;;;6302502;28;20035;-75
2021/07/09 00:47:55;;;;;;;4.32;1.67;;;20.10;64.70;;;;;;6274244;28;20036;-76
2021/07/09 00:51:04;;;;;;;10.95;1.70;;;20.10;64.90;;;;;;6273483;28;20036;-75
2021/07/09 00:54:05;;;;;;;4.18;1.83;;;20.10;65.00;;;;;;6295683;28;20047;-75
2021/07/09 00:57:07;;;;;;;3.85;1.80;;;20.10;65.10;;;;;;6297449;28;20101;-75
2021/07/09 01:00:10;;;;;;;2.22;1.55;;;20.10;65.20;;;;;;6298065;28;20032;-75
2021/07/09 01:03:12;;;;;;;4.55;1.80;;;20.00;65.10;;;;;;6280174;28;20814;-75
2021/07/09 01:06:14;;;;;;;3.72;1.83;;;20.00;65.10;;;;;;6314379;28;20032;-75
2021/07/09 01:09:15;;;;;;;6.30;1.77;;;20.00;65.30;;;;;;6314425;28;20050;-75
2021/07/09 01:12:18;;;;;;;4.50;1.65;;;20.00;65.50;;;;;;6267175;28;20029;-75
2021/07/09 01:15:20;;;;;;;3.17;1.65;;;20.00;65.70;;;;;;6312345;28;20042;-75
2021/07/09 01:18:22;;;;;;;1.48;1.33;;;19.90;65.70;;;;;;6314016;28;20052;-76
2021/07/09 01:21:23;;;;;;;3.95;1.50;;;19.90;65.70;;;;;;6281430;28;20047;-75
2021/07/09 01:24:25;;;;;;;2.35;1.77;;;20.00;65.80;;;;;;6297108;28;20040;-75
2021/07/09 01:27:26;;;;;;;2.90;1.40;;;20.00;66.00;;;;;;6296168;28;20040;-75
2021/07/09 01:30:28;;;;;;;2.53;1.60;;;19.90;66.10;;;;;;6297861;28;20043;-76
2021/07/09 01:33:31;;;;;;;4.80;1.40;;;20.00;66.20;;;;;;6297845;28;20472;-76
2021/07/09 01:36:33;;;;;;;5.18;1.83;;;19.90;66.20;;;;;;6296932;28;20040;-76
2021/07/09 01:39:34;;;;;;;8.27;1.60;;;20.00;66.30;;;;;;6296868;28;20041;-76
2021/07/09 01:42:36;;;;;;;1.85;1.05;;;20.00;66.10;;;;;;6297208;28;20033;-75
2021/07/09 01:45:37;;;;;;;3.60;1.08;;;19.90;66.10;;;;;;6301605;28;20052;-75
2021/07/09 01:48:38;;;;;;;1.00;0.90;;;19.90;66.10;;;;;;6273312;28;20037;-75
2021/07/09 01:51:39;;;;;;;3.10;1.70;;;19.90;66.20;;;;;;6277661;28;20062;-75
2021/07/09 01:54:40;;;;;;;3.10;1.50;;;19.90;66.20;;;;;;6296889;28;20044;-75
2021/07/09 01:57:43;;;;;;;7.70;1.52;;;19.80;66.30;;;;;;6296238;28;20032;-75
2021/07/09 02:00:45;;;;;;;2.00;1.20;;;19.90;66.40;;;;;;6296281;28;20037;-74
2021/07/09 02:03:46;;;;;;;7.85;1.48;;;19.90;66.40;;;;;;6290982;28;20048;-75
2021/07/09 02:06:47;;;;;;;2.80;1.20;;;19.90;66.40;;;;;;6292833;28;20170;-76
2021/07/09 02:09:54;;;;;;;4.22;1.67;;;19.90;66.20;;;;;;6296062;28;20032;-75
2021/07/09 02:12:57;;;;;;;1.60;1.30;;;20.00;66.10;;;;;;6304190;28;20458;-75
2021/07/09 02:15:58;;;;;;;6.05;1.45;;;20.00;66.00;;;;;;6313747;28;20369;-75
2021/07/09 02:19:00;;;;;;;3.72;1.45;;;20.00;65.90;;;;;;6296703;28;20056;-75
2021/07/09 02:22:04;;;;;;;2.67;1.35;;;20.00;65.80;;;;;;6294178;28;20033;-75
2021/07/09 02:25:06;;;;;;;2.42;1.40;;;20.00;65.80;;;;;;6297967;28;20036;-75
2021/07/09 02:28:08;;;;;;;2.65;1.35;;;20.00;65.80;;;;;;6280279;28;20028;-75
2021/07/09 02:31:09;;;;;;;2.10;1.33;;;20.00;65.80;;;;;;6298351;28;20036;-75
2021/07/09 02:34:10;;;;;;;2.85;1.63;;;20.00;65.80;;;;;;6294670;28;20043;-75
2021/07/09 02:37:12;;;;;;;1.50;1.02;;;19.90;65.90;;;;;;6271292;28;20396;-75
2021/07/09 02:40:20;;;;;;;1.92;1.35;;;19.90;66.10;;;;;;6295843;28;20481;-75
2021/07/09 02:43:21;;;;;;;3.17;1.70;;;19.90;66.40;;;;;;6274009;28;20451;-75
2021/07/09 02:46:22;;;;;;;2.38;1.50;;;19.80;66.40;;;;;;6297156;28;20044;-75
2021/07/09 02:49:23;;;;;;;4.80;2.08;;;19.80;66.40;;;;;;6292297;28;20118;-75
2021/07/09 02:52:24;;;;;;;6.07;2.13;;;19.80;66.40;;;;;;6271870;28;20053;-75
2021/07/09 02:59:47;;;;;;;1.67;1.50;;;19.70;66.60;;;;;;6293344;28;20040;-75
2021/07/09 03:02:49;;;;;;;2.25;1.40;;;19.70;66.60;;;;;;6295980;28;20074;-75
2021/07/09 03:05:50;;;;;;;2.25;1.33;;;19.70;66.60;;;;;;6312543;28;20471;-74
2021/07/09 03:08:51;;;;;;;4.95;1.60;;;19.70;66.50;;;;;;6294537;28;20054;-75
2021/07/09 03:11:52;;;;;;;2.55;1.33;;;19.70;66.50;;;;;;6295706;28;20123;-77
2021/07/09 03:14:53;;;;;;;3.75;1.80;;;19.70;66.50;;;;;;6291549;28;20373;-75
2021/07/09 03:17:55;;;;;;;1.98;1.50;;;19.80;66.60;;;;;;6316007;28;20032;-75
2021/07/09 03:20:56;;;;;;;2.10;1.30;;;19.80;66.50;;;;;;6270425;28;20033;-75
2021/07/09 03:23:58;;;;;;;3.95;1.23;;;19.80;66.50;;;;;;6290914;28;20095;-75
2021/07/09 03:26:59;;;;;;;2.58;1.50;;;19.80;66.40;;;;;;6295492;28;20041;-75
2021/07/09 03:30:00;;;;;;;1.50;1.40;;;19.80;66.40;;;;;;6311360;28;20029;-75
2021/07/09 03:33:02;;;;;;;2.60;1.52;;;19.90;66.40;;;;;;6282797;28;20037;-75
2021/07/09 03:36:05;;;;;;;4.85;1.65;;;19.90;66.30;;;;;;6273358;28;20375;-74
2021/07/09 03:39:06;;;;;;;6.40;1.60;;;19.90;66.10;;;;;;6296401;28;20032;-74
2021/07/09 03:42:07;;;;;;;2.45;1.40;;;19.90;66.00;;;;;;6295295;28;20040;-74
2021/07/09 03:45:09;;;;;;;4.65;1.63;;;19.90;66.00;;;;;;6294201;28;20060;-74
2021/07/09 03:48:10;;;;;;;2.50;1.30;;;19.90;65.90;;;;;;6311979;28;20429;-75
2021/07/09 03:51:12;;;;;;;2.83;1.77;;;19.80;65.90;;;;;;6294132;28;20441;-74
2021/07/09 03:54:14;;;;;;;2.15;1.73;;;19.80;65.90;;;;;;6311684;28;20041;-75
2021/07/09 03:57:15;;;;;;;3.10;1.90;;;19.70;65.90;;;;;;6294551;28;20045;-75
2021/07/09 04:00:17;;;;;;;3.50;2.20;;;19.70;66.00;;;;;;6295051;28;20035;-75
2021/07/09 04:03:19;;;;;;;3.60;1.60;;;19.60;65.90;;;;;;6296415;28;20036;-76
2021/07/09 04:06:20;;;;;;;4.18;1.75;;;19.60;66.00;;;;;;6315877;28;20099;-75
2021/07/09 04:09:21;;;;;;;2.13;1.50;;;19.60;66.00;;;;;;6295103;28;20362;-76
2021/07/09 04:12:22;;;;;;;4.18;1.90;;;19.60;66.00;;;;;;6294359;28;20040;-75
2021/07/09 04:15:23;;;;;;;7.25;2.05;;;19.60;65.90;;;;;;6310268;28;20033;-76
2021/07/09 04:18:24;;;;;;;4.43;1.73;;;19.60;65.80;;;;;;6293400;28;20041;-76
2021/07/09 04:21:26;;;;;;;3.58;1.77;;;19.60;65.70;;;;;;6299871;28;20108;-76
2021/07/09 04:24:27;;;;;;;2.53;1.80;;;19.70;65.80;;;;;;6304278;28;20039;-75
2021/07/09 04:27:30;;;;;;;3.92;2.25;;;19.60;65.70;;;;;;6303537;28;20036;-75
2021/07/09 04:30:32;;;;;;;4.13;1.80;;;19.60;65.70;;;;;;6298719;28;20037;-75
2021/07/09 04:33:33;;;;;;;6.35;2.13;;;19.70;65.70;;;;;;6292673;28;20105;-75
2021/07/09 04:36:34;;;;;;;3.55;2.15;;;19.70;65.60;;;;;;6316586;28;20491;-75
2021/07/09 04:39:37;;;;;;;5.07;2.08;;;19.70;65.60;;;;;;6301065;28;20051;-75
2021/07/09 04:42:38;;;;;;;2.72;2.13;;;19.70;65.60;;;;;;6300998;28;20041;-76
2021/07/09 04:45:39;;;;;;;7.65;2.03;;;19.70;65.70;;;;;;6299076;28;20037;-75
2021/07/09 04:48:41;;;;;;;4.32;2.40;;;19.70;65.60;;;;;;6313578;28;20044;-75
2021/07/09 04:51:42;;;;;;;2.90;1.95;;;19.70;65.60;;;;;;6300393;28;20036;-76
2021/07/09 04:54:43;;;;;;;3.25;2.03;;;19.70;65.60;;;;;;6315934;28;20173;-76
2021/07/09 04:57:44;;;;;;;4.10;1.60;;;19.80;65.60;;;;;;6298867;28;20110;-75
2021/07/09 05:00:46;;;;;;;10.93;2.20;;;19.80;65.60;;;;;;6299955;28;20037;-75
2021/07/09 05:03:47;;;;;;;6.00;2.47;;;19.80;65.40;;;;;;6291664;28;20041;-75
2021/07/09 05:06:48;;;;;;;7.88;2.10;;;19.80;65.20;;;;;;6275122;28;20048;-75
2021/07/09 05:09:49;;;;;;;3.42;2.13;;;19.90;65.30;;;;;;6281775;28;20044;-75
2021/07/09 05:12:50;;;;;;;11.77;2.67;;;19.90;65.40;;;;;;6300124;28;20036;-76
2021/07/09 05:15:51;;;;;;;6.15;2.00;;;19.80;64.90;;;;;;6315636;28;20045;-76
2021/07/09 05:18:54;;;;;;;7.38;2.47;;;19.80;64.60;;;;;;6281714;28;20131;-76
2021/07/09 05:21:56;;;;;;;10.52;2.20;;;19.80;64.50;;;;;;6317312;28;20044;-76
2021/07/09 05:24:57;;;;;;;2.47;1.90;;;19.80;64.50;;;;;;6292342;28;20048;-75
2021/07/09 05:27:58;;;;;;;4.57;1.90;;;19.90;64.40;;;;;;6282615;28;20048;-75
2021/07/09 05:31:00;;;;;;;2.97;1.98;;;19.90;64.30;;;;;;6303233;28;20039;-75
2021/07/09 05:34:03;;;;;;;2.78;1.80;;;19.90;64.10;;;;;;6295585;28;20036;-75
2021/07/09 05:37:04;;;;;;;3.53;2.25;;;20.00;63.90;;;;;;6299149;28;20051;-75
2021/07/09 05:40:06;;;;;;;5.47;2.33;;;20.00;63.70;;;;;;6298461;28;20365;-75
2021/07/09 05:43:07;;;;;;;4.30;2.60;;;20.10;63.80;;;;;;6295465;28;20513;-75
2021/07/09 05:46:10;;;;;;;7.10;3.38;;;20.10;63.60;;;;;;6298420;28;20024;-75
2021/07/09 05:49:11;;;;;;;8.45;5.70;;;20.20;63.50;;;;;;6297899;28;20033;-75
2021/07/09 05:52:12;;;;;;;6.25;3.55;;;20.40;63.40;;;;;;6299449;28;20028;-76
2021/07/09 05:55:14;;;;;;;10.82;3.20;;;20.30;63.20;;;;;;6297427;28;20060;-75
2021/07/09 05:58:16;;;;;;;6.70;2.22;;;20.20;63.10;;;;;;6281523;28;20047;-75
2021/07/09 06:01:18;;;;;;;6.13;2.63;;;20.30;63.20;;;;;;6283023;28;20025;-75
2021/07/09 06:04:19;;;;;;;10.27;2.40;;;20.30;63.00;;;;;;6301153;28;20044;-75
2021/07/09 06:07:20;;;;;;;5.03;2.30;;;20.40;62.80;;;;;;6292557;28;20038;-75
2021/07/09 06:10:22;;;;;;;5.38;1.90;;;20.60;62.70;;;;;;6296257;28;20053;-75
2021/07/09 06:13:23;;;;;;;2.85;2.05;;;20.80;62.20;;;;;;6290078;28;20032;-75
2021/07/09 06:16:24;;;;;;;6.03;2.13;;;21.00;61.80;;;;;;6286436;28;20336;-75
2021/07/09 06:19:26;;;;;;;3.40;1.77;;;21.10;61.30;;;;;;6275117;28;20458;-75
2021/07/09 06:22:27;;;;;;;9.02;3.33;;;21.20;61.00;;;;;;6280036;28;20425;-75
2021/07/09 06:25:29;;;;;;;4.68;2.42;;;21.30;60.70;;;;;;6317342;28;20028;-74
2021/07/09 06:28:30;;;;;;;5.13;2.55;;;21.50;60.20;;;;;;6283354;28;20033;-74
2021/07/09 06:31:31;;;;;;;4.78;2.42;;;21.70;59.80;;;;;;6278858;28;20481;-75
2021/07/09 06:34:34;;;;;;;5.38;2.33;;;21.90;59.60;;;;;;6302621;28;20047;-74
2021/07/09 06:37:36;;;;;;;8.82;2.40;;;22.10;59.30;;;;;;6297641;28;20056;-74
2021/07/09 06:40:38;;;;;;;2.45;1.95;;;22.20;58.90;;;;;;6315245;28;20036;-75
2021/07/09 06:43:39;;;;;;;6.88;2.08;;;22.30;58.70;;;;;;6315968;28;20115;-77
2021/07/09 06:46:40;;;;;;;3.95;1.90;;;22.40;58.60;;;;;;6298992;28;20043;-76
2021/07/09 06:49:41;;;;;;;5.93;2.03;;;22.50;58.50;;;;;;6299436;28;20474;-77
2021/07/09 06:52:44;;;;;;;7.05;2.17;;;22.60;58.20;;;;;;6298169;28;20081;-76
2021/07/09 06:55:45;;;;;;;4.38;1.70;;;22.70;58.00;;;;;;6298889;28;20036;-75
2021/07/09 06:58:46;;;;;;;8.13;1.85;;;22.80;57.50;;;;;;6299217;28;20055;-76
2021/07/09 07:02:43;;;;;;;8.50;2.28;;;22.80;57.30;;;;;;6317018;28;20130;-76
2021/07/09 07:05:44;;;;;;;2.85;2.10;;;22.90;57.30;;;;;;6276448;28;20037;-75
2021/07/09 07:08:45;;;;;;;6.78;2.08;;;23.10;56.80;;;;;;6272177;28;20473;-75
2021/07/09 07:11:46;;;;;;;2.70;2.00;;;23.10;56.60;;;;;;6290921;28;20556;-77
2021/07/09 07:14:48;;;;;;;4.10;2.03;;;23.20;56.40;;;;;;6275721;28;20036;-76
2021/07/09 07:17:49;;;;;;;2.20;1.80;;;23.70;55.60;;;;;;6274193;28;20040;-75
2021/07/09 07:20:53;;;;;;;6.07;2.13;;;24.30;54.40;;;;;;6306963;28;20028;-76
2021/07/09 07:23:54;;;;;;;5.95;1.90;;;24.80;53.30;;;;;;6276650;28;20024;-75
2021/07/09 07:26:57;;;;;;;4.00;1.80;;;25.20;52.50;;;;;;6294391;28;20039;-75
2021/07/09 07:29:58;;;;;;;13.43;2.10;;;25.30;52.10;;;;;;6296208;28;20048;-75
2021/07/09 07:33:00;;;;;;;4.97;2.15;;;25.20;51.80;;;;;;6272338;28;20037;-75
2021/07/09 07:36:02;;;;;;;6.10;1.95;;;25.00;52.00;;;;;;6269893;28;20339;-75
2021/07/09 07:39:03;;;;;;;5.35;1.77;;;24.80;52.40;;;;;;6269661;28;20167;-75
2021/07/09 07:42:04;;;;;;;3.35;1.50;;;24.70;52.50;;;;;;6269040;28;20036;-74
2021/07/09 07:45:06;;;;;;;8.82;1.48;;;24.60;52.60;;;;;;6303074;28;20029;-76
2021/07/09 07:48:07;;;;;;;4.00;1.70;;;24.60;52.60;;;;;;6266848;28;20097;-75
2021/07/09 07:51:09;;;;;;;2.35;1.70;;;24.50;52.40;;;;;;6287280;28;21316;-75
2021/07/09 07:54:10;;;;;;;7.95;1.60;;;24.30;52.00;;;;;;6297165;28;20040;-75
2021/07/09 07:57:11;;;;;;;1.88;1.50;;;24.20;52.40;;;;;;6298901;28;20029;-76
2021/07/09 08:00:13;;;;;;;2.38;1.40;;;24.20;52.40;;;;;;6299867;28;20028;-75
2021/07/09 08:03:15;;;;;;;6.18;1.77;;;24.20;52.40;;;;;;6298893;28;20044;-75
2021/07/09 08:06:16;;;;;;;5.35;2.05;;;24.20;52.30;;;;;;6316411;28;20036;-75
2021/07/09 08:09:18;;;;;;;2.42;1.75;;;24.30;52.30;;;;;;6305997;28;20028;-75
2021/07/09 08:12:19;;;;;;;2.50;1.63;;;24.40;52.20;;;;;;6258868;28;20029;-76
2021/07/09 08:15:20;;;;;;;2.80;1.48;;;24.40;52.00;;;;;;6298084;28;20028;-76
2021/07/09 08:18:21;;;;;;;1.48;1.38;;;24.50;52.00;;;;;;6297051;28;20040;-76
2021/07/09 08:21:24;;;;;;;2.03;1.33;;;24.50;51.90;;;;;;6295080;28;20060;-76
2021/07/09 08:24:25;;;;;;;1.42;1.20;;;24.40;51.80;;;;;;6299184;28;20093;-76
2021/07/09 08:27:26;;;;;;;2.63;1.30;;;24.50;51.70;;;;;;6298612;28;20037;-76
2021/07/09 08:30:28;;;;;;;4.05;1.40;;;24.50;51.30;;;;;;6299777;28;20353;-76
2021/07/09 08:33:29;;;;;;;2.13;1.30;;;24.50;51.20;;;;;;6297669;28;20052;-76
2021/07/09 08:36:31;;;;;;;1.52;1.30;;;24.40;51.20;;;;;;6297854;28;20091;-74
2021/07/09 08:39:32;;;;;;;1.85;1.50;;;24.30;51.00;;;;;;6298068;28;20048;-75
2021/07/09 08:42:33;;;;;;;5.63;1.70;;;24.30;51.20;;;;;;6298043;28;20047;-75
2021/07/09 08:45:34;;;;;;;5.10;1.75;;;24.10;51.10;;;;;;6299076;28;20036;-75
2021/07/09 08:48:37;;;;;;;1.27;1.08;;;24.10;51.40;;;;;;6297808;28;20095;-76
2021/07/09 08:51:39;;;;;;;1.50;1.40;;;24.10;51.20;;;;;;6297499;28;20063;-76
2021/07/09 08:54:40;;;;;;;1.67;1.50;;;24.30;50.90;;;;;;6313766;28;20041;-75
2021/07/09 08:57:43;;;;;;;6.75;1.70;;;24.30;50.60;;;;;;6297333;28;20055;-76
2021/07/09 09:00:45;;;;;;;3.13;1.65;;;24.50;50.40;;;;;;6299600;28;20032;-75
2021/07/09 09:04:01;;;;;;;5.72;1.33;;;24.60;50.00;;;;;;6298289;28;20059;-76
2021/07/09 09:07:08;;;;;;;6.85;1.70;;;24.70;49.60;;;;;;6292368;28;20040;-75
2021/07/09 09:10:09;;;;;;;2.72;1.60;;;24.90;49.50;;;;;;6315276;28;20112;-76
2021/07/09 09:13:16;;;;;;;2.13;1.73;;;25.00;49.00;;;;;;6298752;28;20037;-76
2021/07/09 09:16:18;;;;;;;5.50;1.95;;;25.10;48.70;;;;;;6298022;28;20424;-76
2021/07/09 09:19:20;;;;;;;3.55;2.35;;;25.20;48.10;;;;;;6299701;28;20037;-76
2021/07/09 09:22:21;;;;;;;7.00;4.07;;;25.20;48.20;;;;;;6315194;28;20044;-76
2021/07/09 09:25:29;;;;;;;2.88;1.70;;;25.40;48.10;;;;;;6296290;28;20465;-76
2021/07/09 09:28:34;;;;;;;2.45;1.35;;;25.50;47.70;;;;;;6290222;28;20097;-75
2021/07/09 09:31:36;;;;;;;90.88;4.55;;;25.60;47.40;;;;;;6273141;28;20532;-75
2021/07/09 09:34:39;;;;;;;10.63;1.30;;;25.70;47.30;;;;;;6321317;28;20373;-76
2021/07/09 09:37:54;;;;;;;9.73;3.25;;;25.80;47.00;;;;;;6322730;28;20040;-76
2021/07/09 09:40:57;;;;;;;4.55;1.30;;;25.90;46.90;;;;;;6322562;28;20390;-76
2021/07/09 09:44:14;;;;;;;15.30;1.77;;;26.10;46.30;;;;;;6316561;28;20036;-75
2021/07/09 09:47:19;;;;;;;5.47;2.17;;;26.20;46.00;;;;;;6321387;28;20160;-76
2021/07/09 09:50:21;;;;;;;3.15;1.35;;;26.40;45.70;;;;;;6306369;28;20028;-75
2021/07/09 09:53:33;;;;;;;24.90;1.67;;;26.60;45.50;;;;;;6295858;28;20037;-75
2021/07/09 09:56:38;;;;;;;8.38;2.45;;;26.70;45.40;;;;;;6273754;28;20029;-76
2021/07/09 09:59:41;;;;;;;6.05;1.65;;;26.90;45.20;;;;;;6310141;28;20040;-75
2021/07/09 10:02:44;;;;;;;9.52;1.50;;;27.10;44.90;;;;;;6305588;28;20024;-76
2021/07/09 10:05:48;;;;;;;4.03;1.30;;;27.30;44.60;;;;;;6323086;28;20488;-75
2021/07/09 10:08:50;;;;;;;59.13;3.38;;;27.40;44.40;;;;;;6325934;28;20559;-75
2021/07/09 10:11:52;;;;;;;6.05;1.65;;;27.50;43.90;;;;;;6340967;28;20024;-75
2021/07/09 10:14:54;;;;;;;3.75;1.33;;;27.60;43.80;;;;;;6342225;28;20047;-76
2021/07/09 10:17:57;;;;;;;2.10;1.50;;;27.70;43.40;;;;;;6311536;28;20085;-75
2021/07/09 10:20:58;;;;;;;1.95;1.33;;;27.90;43.40;;;;;;6326723;28;20449;-75
2021/07/09 10:24:01;;;;;;;7.95;1.40;;;28.00;43.10;;;;;;6286758;28;20047;-77
2021/07/09 10:27:03;;;;;;;4.43;1.27;;;28.00;42.90;;;;;;6298334;28;20441;-77
2021/07/09 10:30:05;;;;;;;1.73;1.10;;;28.10;42.50;;;;;;6298305;28;20043;-75
2021/07/09 10:33:31;;;;;;;1.50;0.90;;;28.20;42.30;;;;;;6306849;28;20028;-75
2021/07/09 10:36:33;;;;;;;7.45;0.95;;;28.20;42.10;;;;;;6304919;28;20376;-75
2021/07/09 10:39:42;;;;;;;6.05;1.20;;;28.30;41.90;;;;;;6321937;28;20452;-75
2021/07/09 10:42:44;;;;;;;2.40;1.33;;;28.30;41.70;;;;;;6321193;28;20043;-75
2021/07/09 10:45:45;;;;;;;3.30;1.65;;;28.20;41.40;;;;;;6304787;28;20036;-76
2021/07/09 10:48:46;;;;;;;3.78;1.15;;;28.20;41.30;;;;;;6321171;28;20055;-76
2021/07/09 10:51:51;;;;;;;1.35;1.25;;;28.10;41.50;;;;;;6300522;28;20099;-75
2021/07/09 10:54:57;;;;;;;3.30;1.50;;;28.10;41.60;;;;;;6295348;28;20059;-75
2021/07/09 10:58:18;;;;;;;1.20;1.10;;;28.20;41.60;;;;;;6311486;28;20109;-77
2021/07/09 11:01:28;;;;;;;3.22;1.08;;;28.40;41.20;;;;;;6294986;28;20111;-75
2021/07/09 11:04:37;;;;;;;3.50;1.30;;;28.50;40.80;;;;;;6296404;28;20045;-75
2021/07/09 11:07:38;;;;;;;3.65;1.10;;;28.70;40.60;;;;;;6297051;28;20049;-76
2021/07/09 11:11:03;;;;;;;3.90;1.40;;;28.90;40.40;;;;;;6295447;28;20101;-75
2021/07/09 11:14:11;;;;;;;1.08;0.98;;;29.10;40.50;;;;;;6297182;28;20090;-74
2021/07/09 11:17:22;;;;;;;2.10;1.10;;;29.60;39.00;;;;;;6311756;28;20107;-75
2021/07/09 11:20:31;;;;;;;4.00;1.52;;;30.10;37.60;;;;;;6294237;28;20032;-75
2021/07/09 11:23:33;;;;;;;0.90;0.90;;;30.30;37.20;;;;;;6311209;28;20036;-75
2021/07/09 11:26:35;;;;;;;1.10;1.00;;;30.20;37.30;;;;;;6295568;28;20076;-75
2021/07/09 11:29:45;;;;;;;3.78;1.23;;;30.30;37.00;;;;;;6312149;28;20033;-76
2021/07/09 11:32:46;;;;;;;1.27;1.02;;;30.40;36.70;;;;;;6295746;28;20029;-75
2021/07/09 11:35:47;;;;;;;2.15;1.10;;;30.40;36.80;;;;;;6295267;28;20024;-75
2021/07/09 11:39:08;;;;;;;2.13;1.00;;;30.40;36.50;;;;;;6295169;28;20040;-75
2021/07/09 11:42:20;;;;;;;1.10;1.00;;;30.30;36.50;;;;;;6270839;28;20037;-75
2021/07/09 11:45:29;;;;;;;5.65;0.80;;;31.00;35.80;;;;;;6294309;28;20136;-75
2021/07/09 11:48:31;;;;;;;2.97;0.82;;;32.00;34.40;;;;;;6294136;28;20047;-74
2021/07/09 11:51:33;;;;;;;1.52;1.20;;;33.00;33.00;;;;;;6294661;28;20036;-75
2021/07/09 11:54:40;;;;;;;4.15;1.00;;;33.30;32.00;;;;;;6293208;28;20049;-75
2021/07/09 11:57:42;;;;;;;2.00;1.35;;;33.70;31.20;;;;;;6294492;28;20399;-76
2021/07/09 12:00:43;;;;;;;1.33;1.02;;;33.90;30.80;;;;;;6295101;28;20033;-76
2021/07/09 12:03:49;;;;;;;3.00;1.88;;;33.90;30.70;;;;;;6279823;28;20366;-75
2021/07/09 12:06:50;;;;;;;1.85;1.25;;;33.80;30.70;;;;;;6285875;28;20343;-77
2021/07/09 12:10:00;;;;;;;2.05;0.68;;;33.70;30.40;;;;;;6295231;28;20029;-75
2021/07/09 12:13:03;;;;;;;2.97;1.30;;;33.20;30.80;;;;;;6294661;28;20370;-75
2021/07/09 12:16:06;;;;;;;7.38;2.97;;;32.50;31.30;;;;;;6294705;28;20032;-75
2021/07/09 12:19:07;;;;;;;1.60;0.90;;;31.80;32.10;;;;;;6295214;28;20036;-75
2021/07/09 12:22:24;;;;;;;5.43;2.90;;;31.30;32.90;;;;;;6294372;28;20112;-75
2021/07/09 12:25:29;;;;;;;1.92;1.05;;;30.90;33.70;;;;;;6311179;28;20060;-75
2021/07/09 12:28:31;;;;;;;3.20;1.30;;;30.90;33.80;;;;;;6293502;28;20094;-75
2021/07/09 12:31:32;;;;;;;2.63;0.90;;;31.80;33.20;;;;;;6293323;28;20362;-75
2021/07/09 12:34:33;;;;;;;2.50;1.00;;;32.90;31.90;;;;;;6297980;28;20115;-76
2021/07/09 12:37:35;;;;;;;1.48;0.77;;;33.90;30.00;;;;;;6318754;28;20047;-74
2021/07/09 12:40:43;;;;;;;1.83;1.00;;;34.80;29.30;;;;;;6322280;28;20059;-74
2021/07/09 12:43:52;;;;;;;1.15;0.95;;;35.60;28.50;;;;;;6325385;28;20024;-75
2021/07/09 12:46:58;;;;;;;0.95;0.95;;;35.70;28.00;;;;;;6324781;28;20036;-74
2021/07/09 12:50:14;;;;;;;1.17;1.00;;;35.20;28.10;;;;;;6307461;28;20055;-74
2021/07/09 12:53:19;;;;;;;3.10;0.90;;;34.40;28.90;;;;;;6314421;28;20045;-75
2021/07/09 12:56:22;;;;;;;4.05;1.08;;;34.00;29.10;;;;;;6274833;28;20044;-74
2021/07/09 12:59:27;;;;;;;2.15;1.00;;;33.80;29.40;;;;;;6278891;28;20041;-75
2021/07/09 13:02:29;;;;;;;2.70;1.38;;;33.50;29.50;;;;;;6264630;28;20040;-76
2021/07/09 13:05:30;;;;;;;5.38;1.30;;;33.30;29.70;;;;;;6323292;28;20113;-75
2021/07/09 13:08:33;;;;;;;1.52;1.27;;;33.50;29.40;;;;;;6323606;28;20043;-76
2021/07/09 13:11:39;;;;;;;5.25;1.30;;;33.60;29.20;;;;;;6324815;28;20070;-75
2021/07/09 13:15:03;;;;;;;3.45;1.20;;;33.10;29.50;;;;;;6322978;28;20040;-75
2021/07/09 13:18:05;;;;;;;5.45;1.40;;;32.60;30.30;;;;;;6305403;28;20487;-76
2021/07/09 13:21:09;;;;;;;3.05;1.10;;;33.40;30.00;;;;;;6323020;28;20043;-75
2021/07/09 13:24:11;;;;;;;2.35;1.20;;;35.10;27.90;;;;;;6322844;28;20024;-76
2021/07/09 13:27:23;;;;;;;5.13;1.45;;;36.40;26.70;;;;;;6322017;28;20101;-75
2021/07/09 13:30:24;;;;;;;1.60;0.93;;;37.60;25.50;;;;;;6295224;28;20033;-76
2021/07/09 13:33:26;;;;;;;4.00;1.05;;;37.90;25.00;;;;;;6298586;28;20108;-75
2021/07/09 13:36:32;;;;;;;2.92;1.10;;;37.80;24.90;;;;;;6298524;28;20488;-76
2021/07/09 13:39:33;;;;;;;4.18;1.00;;;36.80;25.50;;;;;;6297563;28;20036;-75
2021/07/09 13:42:37;;;;;;;1.20;1.00;;;35.50;26.50;;;;;;6296847;28;20041;-74
2021/07/09 13:45:39;;;;;;;3.60;0.98;;;34.40;27.60;;;;;;6297430;28;20067;-75
2021/07/09 13:48:40;;;;;;;1.55;0.90;;;33.50;28.60;;;;;;6297756;28;20353;-76
2021/07/09 13:51:41;;;;;;;1.00;0.90;;;33.60;28.90;;;;;;6278377;28;20542;-76
2021/07/09 13:54:42;;;;;;;1.92;1.30;;;34.90;27.50;;;;;;6296204;28;20385;-76
2021/07/09 13:57:44;;;;;;;4.10;0.93;;;36.60;26.20;;;;;;6296661;28;20036;-75
2021/07/09 14:00:45;;;;;;;5.00;1.40;;;38.10;24.50;;;;;;6296760;28;20094;-76
2021/07/09 14:03:46;;;;;;;2.90;0.98;;;39.30;23.80;;;;;;6296332;28;20091;-76
2021/07/09 14:06:47;;;;;;;0.93;0.70;;;40.90;22.80;;;;;;6322698;28;20472;-75
2021/07/09 14:09:48;;;;;;;2.30;0.90;;;42.10;21.60;;;;;;6322367;28;20036;-75
2021/07/09 14:12:50;;;;;;;5.22;1.23;;;41.80;21.50;;;;;;6324073;28;20040;-76
2021/07/09 14:15:52;;;;;;;2.05;1.02;;;40.60;21.80;;;;;;6321671;28;20036;-75
2021/07/09 14:18:53;;;;;;;1.33;0.98;;;39.90;22.20;;;;;;6319892;28;20035;-75
2021/07/09 14:21:54;;;;;;;1.95;0.95;;;39.90;22.20;;;;;;6321427;28;20036;-77
2021/07/09 14:24:55;;;;;;;1.27;0.82;;;40.40;21.90;;;;;;6322679;28;20040;-76
2021/07/09 14:27:57;;;;;;;1.55;0.88;;;41.20;21.30;;;;;;6323418;28;20036;-75
2021/07/09 14:30:59;;;;;;;0.85;0.85;;;41.10;21.20;;;;;;6294360;28;20032;-76
2021/07/09 14:34:00;;;;;;;1.52;0.80;;;40.60;21.40;;;;;;6299759;28;20032;-76
2021/07/09 14:37:02;;;;;;;3.15;0.90;;;40.70;21.40;;;;;;6311628;28;20028;-76
2021/07/09 14:40:05;;;;;;;1.63;0.80;;;41.20;21.00;;;;;;6301514;28;20353;-76
2021/07/09 14:43:06;;;;;;;3.70;0.95;;;41.70;20.60;;;;;;6303213;28;20047;-75
2021/07/09 14:46:07;;;;;;;3.10;0.80;;;42.10;20.30;;;;;;6306355;28;20032;-76
2021/07/09 14:49:08;;;;;;;11.90;1.52;;;42.40;20.20;;;;;;6298685;28;20033;-76
2021/07/09 14:52:10;;;;;;;1.42;0.88;;;42.90;20.10;;;;;;6298424;28;20072;-77
2021/07/09 14:55:13;;;;;;;0.82;0.80;;;43.60;19.70;;;;;;6313367;28;20116;-76
2021/07/09 14:58:15;;;;;;;1.30;0.88;;;43.80;19.30;;;;;;6296607;28;20085;-75
2021/07/09 15:01:16;;;;;;;1.02;0.85;;;43.80;18.80;;;;;;6296788;28;20033;-76
2021/07/09 15:04:20;;;;;;;0.90;0.80;;;43.60;19.00;;;;;;6296094;28;20052;-76
2021/07/09 15:07:21;;;;;;;2.85;0.80;;;43.40;19.00;;;;;;6279505;28;20104;-76
2021/07/09 15:10:22;;;;;;;2.30;0.90;;;42.80;19.40;;;;;;6296536;28;20443;-74
2021/07/09 15:13:24;;;;;;;3.80;0.80;;;42.40;19.60;;;;;;6295947;28;20036;-77
2021/07/09 15:16:25;;;;;;;1.92;1.13;;;42.50;19.80;;;;;;6279160;28;20049;-75
2021/07/09 15:19:27;;;;;;;1.73;0.93;;;42.50;19.70;;;;;;6296361;28;20047;-75
2021/07/09 15:22:29;;;;;;;1.02;0.93;;;42.30;19.70;;;;;;6295303;28;20043;-76
2021/07/09 15:25:30;;;;;;;0.80;0.80;;;42.30;19.70;;;;;;6295693;28;20047;-76
2021/07/09 15:28:31;;;;;;;1.13;0.80;;;42.30;19.70;;;;;;6293831;28;20047;-76
2021/07/09 15:31:34;;;;;;;0.73;0.73;;;42.10;19.60;;;;;;6296509;28;20484;-76
2021/07/09 15:34:35;;;;;;;1.13;0.80;;;42.00;19.90;;;;;;6295720;28;20032;-75
2021/07/09 15:37:38;;;;;;;7.10;1.15;;;41.80;19.90;;;;;;6313308;28;20128;-75
2021/07/09 15:40:39;;;;;;;10.27;1.00;;;41.50;20.20;;;;;;6312233;28;20032;-76
2021/07/09 15:43:40;;;;;;;1.63;1.00;;;41.80;20.20;;;;;;6293840;28;20052;-75
2021/07/09 15:46:42;;;;;;;1.15;0.80;;;42.20;19.80;;;;;;6296618;28;20037;-76
2021/07/09 15:49:43;;;;;;;1.38;0.95;;;42.30;19.60;;;;;;6278652;28;20406;-77
2021/07/09 15:52:44;;;;;;;1.02;0.90;;;42.20;19.60;;;;;;6294884;28;20157;-76
2021/07/09 15:55:45;;;;;;;0.95;0.77;;;42.30;19.50;;;;;;6275099;28;20060;-76